Time;durP1;ratioP1;P1;durP2;ratioP2;P2;SDS_P1;SDS_P2;PMS_P1;PMS_P2;Temp;Humidity;BMP_temperature;BMP_pressure;BME280_temperature;BME280_humidity;BME280_pressure;Samples;Min_cycle;Max_cycle;Signal;HPM_P1;HPM_P2
2023/06/25 00:01:59;;;;;;;0.00;0.00;;;19.50;96.00;;;;;;5050386;28;20240;-63
2023/06/25 00:04:25;;;;;;;0.00;0.00;;;19.40;96.10;;;;;;5050332;28;20188;-63
2023/06/25 00:06:50;;;;;;;0.00;0.00;;;19.40;96.50;;;;;;5050048;28;20184;-63
2023/06/25 00:09:16;;;;;;;0.00;0.00;;;19.40;96.70;;;;;;5050638;28;20541;-64
2023/06/25 00:11:42;;;;;;;0.00;0.00;;;19.30;96.90;;;;;;5050163;28;20188;-63
2023/06/25 00:14:07;;;;;;;0.10;0.08;;;19.30;97.20;;;;;;5049990;28;20186;-64
2023/06/25 00:16:33;;;;;;;0.00;0.00;;;19.30;97.40;;;;;;5050380;28;20180;-63
2023/06/25 00:19:00;;;;;;;0.00;0.00;;;19.30;97.50;;;;;;5050576;28;20169;-63
2023/06/25 00:21:26;;;;;;;0.00;0.00;;;19.30;97.60;;;;;;5050295;28;20206;-63
2023/06/25 00:23:51;;;;;;;0.00;0.00;;;19.20;97.60;;;;;;5050379;28;20259;-64
2023/06/25 00:26:17;;;;;;;0.00;0.00;;;19.20;97.80;;;;;;5049885;28;20169;-63
2023/06/25 00:28:43;;;;;;;0.00;0.00;;;19.20;98.00;;;;;;5050339;28;20217;-63
2023/06/25 00:31:08;;;;;;;0.00;0.00;;;19.10;98.20;;;;;;5050247;28;20211;-64
2023/06/25 00:33:34;;;;;;;0.00;0.00;;;19.10;98.50;;;;;;5050160;28;20185;-64
2023/06/25 00:36:06;;;;;;;0.00;0.00;;;19.00;98.70;;;;;;5050066;28;20178;-64
2023/06/25 00:38:33;;;;;;;0.00;0.00;;;19.00;98.90;;;;;;5050331;28;20178;-64
2023/06/25 00:40:58;;;;;;;0.00;0.00;;;18.90;99.20;;;;;;5050015;28;20293;-64
2023/06/25 00:43:24;;;;;;;0.00;0.00;;;18.80;99.20;;;;;;5053110;28;20715;-64
2023/06/25 00:45:49;;;;;;;0.00;0.00;;;18.80;99.40;;;;;;5053610;28;20679;-64
2023/06/25 00:48:15;;;;;;;0.00;0.00;;;18.70;99.50;;;;;;5053765;28;20653;-64
2023/06/25 00:50:40;;;;;;;0.00;0.00;;;18.70;99.70;;;;;;5053785;28;20189;-63
2023/06/25 00:53:08;;;;;;;0.00;0.00;;;18.60;99.90;;;;;;5053832;28;20196;-64
2023/06/25 00:55:34;;;;;;;0.00;0.00;;;18.60;99.90;;;;;;5053410;28;20256;-64
2023/06/25 00:58:00;;;;;;;0.00;0.00;;;18.50;99.90;;;;;;5054023;28;20272;-64
2023/06/25 01:00:27;;;;;;;0.10;0.10;;;18.50;99.90;;;;;;5053097;28;20225;-64
2023/06/25 01:03:24;;;;;;;0.00;0.00;;;18.40;99.90;;;;;;5053632;28;20174;-64
2023/06/25 01:06:09;;;;;;;0.00;0.00;;;18.40;99.90;;;;;;5053278;28;20656;-63
2023/06/25 01:08:37;;;;;;;0.00;0.00;;;18.30;99.90;;;;;;5053515;28;20231;-64
2023/06/25 01:11:05;;;;;;;0.20;0.20;;;18.40;99.90;;;;;;5053121;28;20269;-63
2023/06/25 01:13:30;;;;;;;0.00;0.00;;;18.30;99.90;;;;;;5053464;28;20614;-63
2023/06/25 01:15:56;;;;;;;0.00;0.00;;;18.30;99.90;;;;;;5053355;28;20185;-64
2023/06/25 01:18:22;;;;;;;0.03;0.03;;;18.30;99.90;;;;;;5053170;28;20641;-63
2023/06/25 01:20:51;;;;;;;0.10;0.10;;;18.20;99.90;;;;;;5053211;28;20192;-63
2023/06/25 01:23:17;;;;;;;0.00;0.00;;;18.20;99.90;;;;;;5053068;28;20189;-63
2023/06/25 01:25:47;;;;;;;0.00;0.00;;;18.10;99.90;;;;;;5052718;28;20212;-63
2023/06/25 01:28:13;;;;;;;0.00;0.00;;;18.10;99.90;;;;;;5053079;28;20233;-63
2023/06/25 01:30:38;;;;;;;0.00;0.00;;;18.10;99.90;;;;;;5052275;28;20177;-63
2023/06/25 01:33:04;;;;;;;0.00;0.00;;;18.00;99.90;;;;;;5052858;28;20653;-63
2023/06/25 01:35:29;;;;;;;0.00;0.00;;;18.00;99.90;;;;;;5051950;28;20193;-63
2023/06/25 01:37:56;;;;;;;0.00;0.00;;;18.00;99.90;;;;;;5053065;28;20185;-64
2023/06/25 01:40:22;;;;;;;0.00;0.00;;;18.00;99.90;;;;;;5052590;28;20200;-64
2023/06/25 01:42:47;;;;;;;0.00;0.00;;;18.00;99.90;;;;;;5052662;28;20633;-64
2023/06/25 01:45:13;;;;;;;0.00;0.00;;;18.00;99.90;;;;;;5052599;28;20188;-64
2023/06/25 01:47:39;;;;;;;0.00;0.00;;;17.90;99.90;;;;;;5052814;28;20189;-63
2023/06/25 01:50:05;;;;;;;0.00;0.00;;;17.90;99.90;;;;;;5052473;28;20622;-64
2023/06/25 01:52:32;;;;;;;0.05;0.05;;;17.90;99.90;;;;;;5052420;28;20180;-64
2023/06/25 01:54:58;;;;;;;0.00;0.00;;;17.80;99.90;;;;;;5051733;28;20238;-64
2023/06/25 01:57:23;;;;;;;0.00;0.00;;;17.80;99.90;;;;;;5052838;28;20537;-64
2023/06/25 01:59:49;;;;;;;0.00;0.00;;;17.70;99.90;;;;;;5052426;28;20182;-64
2023/06/25 02:02:14;;;;;;;0.00;0.00;;;17.70;99.90;;;;;;5052214;28;20212;-63
2023/06/25 02:04:40;;;;;;;0.00;0.00;;;17.60;99.90;;;;;;5052007;28;20649;-63
2023/06/25 02:07:05;;;;;;;0.00;0.00;;;17.60;99.90;;;;;;5052575;28;20609;-63
2023/06/25 02:09:32;;;;;;;0.00;0.00;;;17.50;99.90;;;;;;5052404;28;20222;-63
2023/06/25 02:11:57;;;;;;;0.00;0.00;;;17.50;99.90;;;;;;5052065;28;20201;-63
2023/06/25 02:14:23;;;;;;;0.10;0.10;;;17.50;99.90;;;;;;5052170;28;20645;-64
2023/06/25 02:16:48;;;;;;;0.00;0.00;;;17.50;99.90;;;;;;5052095;28;20633;-63
2023/06/25 02:19:14;;;;;;;0.00;0.00;;;17.40;99.90;;;;;;5051840;28;20186;-63
2023/06/25 02:21:39;;;;;;;0.00;0.00;;;17.40;99.90;;;;;;5052090;28;20272;-63
2023/06/25 02:24:05;;;;;;;0.00;0.00;;;17.40;99.90;;;;;;5051739;28;20186;-63
2023/06/25 02:26:31;;;;;;;0.00;0.00;;;17.30;99.90;;;;;;5051372;28;20684;-63
2023/06/25 02:28:56;;;;;;;0.00;0.00;;;17.30;99.90;;;;;;5051868;28;20727;-63
2023/06/25 02:31:22;;;;;;;0.17;0.17;;;17.30;99.90;;;;;;5051609;28;20177;-63
2023/06/25 02:33:47;;;;;;;0.00;0.00;;;17.30;99.90;;;;;;5052022;28;20184;-63
2023/06/25 02:36:13;;;;;;;0.00;0.00;;;17.20;99.90;;;;;;5050819;28;20243;-64
2023/06/25 02:38:39;;;;;;;0.15;0.15;;;17.20;99.90;;;;;;5051767;28;20178;-64
2023/06/25 02:41:04;;;;;;;0.00;0.00;;;17.10;99.90;;;;;;5051441;28;20189;-63
2023/06/25 02:43:31;;;;;;;0.00;0.00;;;17.10;99.90;;;;;;5051769;28;20209;-64
2023/06/25 02:45:56;;;;;;;0.00;0.00;;;17.10;99.90;;;;;;5051327;28;20637;-63
2023/06/25 02:48:23;;;;;;;0.00;0.00;;;17.10;99.90;;;;;;5051580;28;20219;-64
2023/06/25 02:50:48;;;;;;;0.00;0.00;;;17.10;99.90;;;;;;5034112;28;20599;-63
2023/06/25 02:53:14;;;;;;;0.25;0.25;;;17.10;99.90;;;;;;5051351;28;20189;-63
2023/06/25 02:55:40;;;;;;;0.00;0.00;;;17.10;99.90;;;;;;5050551;28;20174;-63
2023/06/25 02:58:06;;;;;;;0.00;0.00;;;17.00;99.90;;;;;;5051291;28;20692;-63
2023/06/25 03:00:31;;;;;;;0.00;0.00;;;17.00;99.90;;;;;;5051055;28;20211;-63
2023/06/25 03:02:57;;;;;;;0.00;0.00;;;17.00;99.90;;;;;;5049479;28;20201;-63
2023/06/25 03:05:23;;;;;;;0.00;0.00;;;17.00;99.90;;;;;;5050858;28;20181;-63
2023/06/25 03:07:53;;;;;;;0.00;0.00;;;17.00;99.90;;;;;;5050818;28;20178;-63
2023/06/25 03:10:19;;;;;;;0.00;0.00;;;17.00;99.90;;;;;;5051055;28;20213;-63
2023/06/25 03:12:45;;;;;;;0.00;0.00;;;16.90;99.90;;;;;;5050831;28;20193;-63
2023/06/25 03:15:10;;;;;;;0.00;0.00;;;16.90;99.90;;;;;;5051261;28;20182;-63
2023/06/25 03:17:36;;;;;;;0.00;0.00;;;16.90;99.90;;;;;;5050704;28;20177;-64
2023/06/25 03:20:03;;;;;;;0.00;0.00;;;16.80;99.90;;;;;;5051229;28;20251;-65
2023/06/25 03:22:29;;;;;;;0.00;0.00;;;16.80;99.90;;;;;;5050757;28;20265;-63
2023/06/25 03:24:54;;;;;;;0.13;0.13;;;16.80;99.90;;;;;;5050593;28;20268;-63
2023/06/25 03:27:20;;;;;;;0.00;0.00;;;16.80;99.90;;;;;;5047002;28;20653;-63
2023/06/25 03:29:45;;;;;;;0.00;0.00;;;16.80;99.90;;;;;;5050499;28;20217;-65
2023/06/25 03:32:11;;;;;;;0.10;0.10;;;16.80;99.90;;;;;;5050672;28;20272;-64
2023/06/25 03:34:37;;;;;;;0.00;0.00;;;16.80;99.90;;;;;;5050535;28;20193;-64
2023/06/25 03:37:02;;;;;;;0.25;0.25;;;16.80;99.90;;;;;;5050982;28;20265;-64
2023/06/25 03:39:28;;;;;;;0.00;0.00;;;16.80;99.90;;;;;;5050744;28;20185;-63
2023/06/25 03:41:53;;;;;;;0.00;0.00;;;16.80;99.90;;;;;;5050777;28;20267;-63
2023/06/25 03:44:19;;;;;;;0.05;0.05;;;16.80;99.90;;;;;;5051321;28;20212;-64
2023/06/25 03:46:44;;;;;;;0.00;0.00;;;16.80;99.90;;;;;;5050550;28;20185;-64
2023/06/25 03:49:10;;;;;;;0.00;0.00;;;16.80;99.90;;;;;;5051135;28;20209;-64
2023/06/25 03:51:35;;;;;;;0.20;0.20;;;16.80;99.90;;;;;;5050476;28;20173;-64
2023/06/25 03:54:01;;;;;;;0.00;0.00;;;16.70;99.90;;;;;;5050478;28;20529;-63
2023/06/25 03:56:26;;;;;;;0.00;0.00;;;16.80;99.90;;;;;;5050042;28;20181;-63
2023/06/25 03:58:52;;;;;;;0.00;0.00;;;16.80;99.90;;;;;;5050029;28;20266;-63
2023/06/25 04:01:17;;;;;;;0.00;0.00;;;16.80;99.90;;;;;;5050540;28;20188;-63
2023/06/25 04:03:43;;;;;;;0.00;0.00;;;16.80;99.90;;;;;;5049994;28;20184;-63
2023/06/25 04:06:08;;;;;;;0.00;0.00;;;16.80;99.90;;;;;;5048401;28;20185;-63
2023/06/25 04:08:34;;;;;;;0.00;0.00;;;16.80;99.90;;;;;;5049787;28;20228;-63
2023/06/25 04:10:59;;;;;;;0.00;0.00;;;16.80;99.90;;;;;;5049267;28;20208;-63
2023/06/25 04:13:25;;;;;;;0.00;0.00;;;16.90;99.90;;;;;;5049547;28;20181;-63
2023/06/25 04:15:51;;;;;;;0.00;0.00;;;16.90;99.90;;;;;;5049810;28;20616;-63
2023/06/25 04:18:16;;;;;;;0.00;0.00;;;17.00;99.90;;;;;;5052603;28;20189;-63
2023/06/25 04:20:42;;;;;;;0.00;0.00;;;17.20;99.90;;;;;;5053696;28;20189;-63
2023/06/25 04:23:07;;;;;;;0.10;0.10;;;17.40;99.90;;;;;;5053822;28;20613;-63
2023/06/25 04:25:33;;;;;;;0.00;0.00;;;17.80;99.90;;;;;;5051919;28;20170;-63
2023/06/25 04:27:58;;;;;;;0.10;0.10;;;18.10;99.90;;;;;;5054037;28;20236;-63
2023/06/25 04:30:24;;;;;;;0.00;0.00;;;18.50;99.90;;;;;;5053831;28;20220;-63
2023/06/25 04:32:49;;;;;;;0.00;0.00;;;18.90;99.90;;;;;;5052905;28;20227;-63
2023/06/25 04:35:16;;;;;;;0.05;0.05;;;19.30;99.90;;;;;;5053592;28;20619;-63
2023/06/25 04:37:42;;;;;;;0.00;0.00;;;19.60;99.90;;;;;;5053178;28;20172;-64
2023/06/25 04:40:08;;;;;;;0.00;0.00;;;20.00;99.90;;;;;;5052981;28;20186;-64
2023/06/25 04:42:33;;;;;;;0.00;0.00;;;20.30;99.90;;;;;;5053676;28;20223;-64
2023/06/25 04:44:59;;;;;;;0.00;0.00;;;20.60;99.90;;;;;;5053624;28;20212;-63
2023/06/25 04:47:24;;;;;;;0.00;0.00;;;21.00;99.90;;;;;;5053238;28;20367;-63
2023/06/25 04:49:50;;;;;;;0.00;0.00;;;21.30;99.60;;;;;;5052510;28;20205;-64
2023/06/25 04:52:19;;;;;;;0.00;0.00;;;21.60;99.00;;;;;;5053291;28;20211;-64
2023/06/25 04:54:45;;;;;;;0.00;0.00;;;21.90;98.30;;;;;;5053024;28;20186;-63
2023/06/25 04:57:11;;;;;;;0.00;0.00;;;22.20;97.80;;;;;;5037629;28;20701;-63
2023/06/25 04:59:36;;;;;;;0.00;0.00;;;22.60;97.30;;;;;;5053748;28;20181;-63
2023/06/25 05:02:02;;;;;;;0.00;0.00;;;23.00;96.50;;;;;;5053599;28;20556;-63
2023/06/25 05:04:28;;;;;;;0.00;0.00;;;23.40;95.40;;;;;;5052527;28;20181;-63
2023/06/25 05:06:54;;;;;;;0.00;0.00;;;23.70;94.60;;;;;;5049379;28;20614;-63
2023/06/25 05:09:20;;;;;;;0.00;0.00;;;24.00;94.10;;;;;;5052877;28;20229;-64
2023/06/25 05:11:46;;;;;;;0.00;0.00;;;24.30;93.50;;;;;;5052513;28;20178;-63
2023/06/25 05:14:11;;;;;;;0.00;0.00;;;24.70;92.80;;;;;;5053097;28;20192;-64
2023/06/25 05:16:37;;;;;;;0.00;0.00;;;25.00;92.30;;;;;;5053134;28;20621;-63
2023/06/25 05:19:03;;;;;;;0.00;0.00;;;25.30;90.50;;;;;;5052237;28;20181;-63
2023/06/25 05:21:29;;;;;;;0.00;0.00;;;25.70;90.00;;;;;;5053201;28;20208;-63
2023/06/25 05:24:03;;;;;;;0.00;0.00;;;25.90;88.40;;;;;;5052827;28;20310;-63
2023/06/25 05:26:29;;;;;;;0.00;0.00;;;26.20;86.20;;;;;;5052022;28;20213;-64
2023/06/25 05:28:55;;;;;;;0.05;0.05;;;26.50;84.30;;;;;;5049992;28;20209;-64
2023/06/25 05:31:20;;;;;;;0.00;0.00;;;26.90;82.10;;;;;;5051701;28;20499;-63
2023/06/25 05:33:46;;;;;;;0.00;0.00;;;27.30;79.60;;;;;;5051896;28;20204;-63
2023/06/25 05:36:16;;;;;;;0.00;0.00;;;27.60;77.10;;;;;;5051704;28;20205;-63
2023/06/25 05:38:42;;;;;;;0.00;0.00;;;27.80;76.30;;;;;;5052571;28;20181;-63
2023/06/25 05:41:08;;;;;;;0.00;0.00;;;28.20;74.90;;;;;;5051603;28;20668;-63
2023/06/25 05:43:33;;;;;;;0.00;0.00;;;28.60;72.90;;;;;;5052215;28;20189;-63
2023/06/25 05:45:59;;;;;;;0.00;0.00;;;28.90;71.60;;;;;;5052185;28;20506;-64
2023/06/25 05:48:25;;;;;;;0.00;0.00;;;29.20;70.50;;;;;;5050844;28;20684;-64
2023/06/25 05:50:51;;;;;;;0.00;0.00;;;29.40;68.50;;;;;;5052506;28;20182;-64
2023/06/25 05:53:17;;;;;;;0.00;0.00;;;29.80;67.80;;;;;;5052648;28;20193;-63
2023/06/25 05:55:43;;;;;;;0.35;0.35;;;30.10;66.90;;;;;;5051816;28;20185;-64
2023/06/25 05:58:08;;;;;;;0.00;0.00;;;30.40;65.10;;;;;;5050455;28;20186;-63
2023/06/25 06:00:34;;;;;;;0.00;0.00;;;30.60;63.30;;;;;;5052492;28;20185;-64
2023/06/25 06:02:59;;;;;;;0.00;0.00;;;30.90;62.90;;;;;;5052298;28;20259;-64
2023/06/25 06:05:25;;;;;;;0.00;0.00;;;31.30;61.40;;;;;;5051726;28;20182;-63
2023/06/25 06:07:50;;;;;;;0.00;0.00;;;31.50;60.00;;;;;;5052127;28;20300;-64
2023/06/25 06:10:16;;;;;;;0.00;0.00;;;31.70;59.20;;;;;;5051415;28;20216;-63
2023/06/25 06:12:42;;;;;;;0.00;0.00;;;31.90;58.60;;;;;;5051166;28;20174;-64
2023/06/25 06:15:08;;;;;;;0.00;0.00;;;32.30;57.60;;;;;;5051966;28;20674;-64
2023/06/25 06:17:34;;;;;;;0.00;0.00;;;32.70;56.30;;;;;;5052236;28;20185;-64
2023/06/25 06:19:59;;;;;;;0.00;0.00;;;32.90;55.40;;;;;;5051435;28;20188;-64
2023/06/25 06:22:25;;;;;;;0.00;0.00;;;33.20;54.20;;;;;;5049634;28;20197;-64
2023/06/25 06:24:50;;;;;;;0.00;0.00;;;33.60;53.30;;;;;;5051193;28;20169;-63
2023/06/25 06:27:16;;;;;;;0.00;0.00;;;33.80;52.10;;;;;;5052220;28;20658;-64
2023/06/25 06:29:41;;;;;;;0.00;0.00;;;34.10;51.70;;;;;;5051607;28;20691;-63
2023/06/25 06:32:08;;;;;;;0.00;0.00;;;34.50;51.20;;;;;;5051857;28;20183;-65
2023/06/25 06:34:33;;;;;;;0.00;0.00;;;34.80;50.80;;;;;;5050815;28;20515;-64
2023/06/25 06:36:59;;;;;;;0.00;0.00;;;35.30;49.70;;;;;;5051738;28;20291;-62
2023/06/25 06:39:25;;;;;;;0.00;0.00;;;35.70;49.20;;;;;;5051342;28;20272;-65
2023/06/25 06:41:50;;;;;;;0.00;0.00;;;36.00;48.10;;;;;;5051528;28;20192;-66
2023/06/25 06:44:18;;;;;;;0.00;0.00;;;36.40;47.50;;;;;;5052159;28;20192;-64
2023/06/25 06:46:44;;;;;;;0.00;0.00;;;36.50;46.70;;;;;;5051645;28;20561;-64
2023/06/25 06:49:10;;;;;;;0.00;0.00;;;36.20;46.50;;;;;;5051447;28;20204;-64
2023/06/25 06:51:37;;;;;;;0.00;0.00;;;36.10;46.80;;;;;;5046372;28;20254;-64
2023/06/25 06:54:06;;;;;;;0.00;0.00;;;36.00;47.10;;;;;;5051284;28;20177;-68
2023/06/25 06:56:33;;;;;;;0.00;0.00;;;36.20;47.20;;;;;;5050819;28;20189;-64
2023/06/25 06:58:58;;;;;;;0.00;0.00;;;36.40;45.60;;;;;;5051482;28;20534;-67
2023/06/25 07:01:25;;;;;;;0.00;0.00;;;36.50;44.00;;;;;;5051078;28;20184;-66
2023/06/25 07:03:50;;;;;;;0.00;0.00;;;36.40;43.60;;;;;;5051500;28;20188;-65
2023/06/25 07:06:16;;;;;;;0.00;0.00;;;36.50;43.80;;;;;;5051342;28;20185;-65
2023/06/25 07:08:41;;;;;;;0.00;0.00;;;36.70;43.10;;;;;;5051296;28;20212;-66
2023/06/25 07:11:07;;;;;;;0.00;0.00;;;36.80;43.00;;;;;;5050051;28;20202;-62
2023/06/25 07:13:32;;;;;;;0.00;0.00;;;37.20;42.60;;;;;;5049051;28;20219;-61
2023/06/25 07:15:58;;;;;;;0.00;0.00;;;37.50;42.40;;;;;;5050778;28;20187;-62
2023/06/25 07:18:24;;;;;;;0.00;0.00;;;37.70;41.30;;;;;;5051105;28;20208;-61
2023/06/25 07:20:49;;;;;;;0.00;0.00;;;38.00;41.50;;;;;;5050387;28;20181;-62
2023/06/25 07:23:15;;;;;;;0.00;0.00;;;38.10;41.10;;;;;;5051211;28;20176;-61
2023/06/25 07:25:41;;;;;;;0.00;0.00;;;38.20;41.50;;;;;;5050379;28;20204;-61
2023/06/25 07:28:09;;;;;;;0.00;0.00;;;38.30;40.00;;;;;;5051052;28;20740;-61
2023/06/25 07:30:34;;;;;;;0.00;0.00;;;38.30;40.90;;;;;;5050883;28;20220;-61
2023/06/25 07:33:00;;;;;;;0.00;0.00;;;38.50;39.30;;;;;;5050742;28;20260;-61
2023/06/25 07:35:26;;;;;;;0.00;0.00;;;38.50;39.60;;;;;;5050650;28;20644;-61
2023/06/25 07:37:51;;;;;;;0.10;0.10;;;38.50;39.50;;;;;;5051053;28;20255;-62
2023/06/25 07:40:17;;;;;;;0.00;0.00;;;38.50;39.40;;;;;;5049586;28;20654;-61
2023/06/25 07:42:42;;;;;;;0.00;0.00;;;38.60;39.20;;;;;;5049009;28;20765;-61
2023/06/25 07:45:09;;;;;;;0.03;0.03;;;38.70;39.00;;;;;;5050130;28;20511;-61
2023/06/25 07:47:35;;;;;;;0.20;0.20;;;38.70;40.00;;;;;;5036611;28;20180;-61
2023/06/25 07:50:01;;;;;;;0.00;0.00;;;38.90;39.30;;;;;;5050068;28;20303;-60
2023/06/25 07:52:26;;;;;;;0.00;0.00;;;38.90;38.70;;;;;;5049220;28;20267;-62
2023/06/25 07:54:53;;;;;;;0.00;0.00;;;38.70;38.70;;;;;;5050528;28;20231;-62
2023/06/25 07:57:19;;;;;;;0.35;0.35;;;38.10;39.20;;;;;;5051263;28;20173;-62
2023/06/25 07:59:44;;;;;;;0.00;0.00;;;37.60;39.70;;;;;;5050410;28;20219;-63
2023/06/25 08:02:10;;;;;;;0.00;0.00;;;37.30;40.40;;;;;;5049655;28;20165;-60
2023/06/25 08:04:36;;;;;;;0.00;0.00;;;37.20;40.60;;;;;;5050528;28;20544;-61
2023/06/25 08:07:01;;;;;;;0.17;0.10;;;37.30;39.40;;;;;;5051252;28;20169;-61
2023/06/25 08:09:27;;;;;;;0.00;0.00;;;37.20;39.30;;;;;;5051236;28;20220;-62
2023/06/25 08:11:52;;;;;;;0.00;0.00;;;37.30;39.00;;;;;;5051061;28;20667;-61
2023/06/25 08:14:18;;;;;;;0.00;0.00;;;37.30;39.50;;;;;;5051177;28;20184;-61
2023/06/25 08:16:43;;;;;;;0.10;0.10;;;37.30;38.70;;;;;;5051169;28;20264;-61
2023/06/25 08:19:09;;;;;;;0.00;0.00;;;37.50;38.60;;;;;;5051195;28;20189;-61
2023/06/25 08:21:35;;;;;;;0.00;0.00;;;37.60;38.70;;;;;;5054132;28;20575;-61
2023/06/25 08:24:01;;;;;;;0.00;0.00;;;37.80;38.40;;;;;;5071244;28;20652;-61
2023/06/25 08:26:26;;;;;;;0.13;0.13;;;37.90;38.30;;;;;;5053925;28;20327;-61
2023/06/25 08:28:52;;;;;;;0.00;0.00;;;37.90;37.00;;;;;;5050920;28;20287;-61
2023/06/25 08:31:17;;;;;;;0.45;0.25;;;37.60;35.80;;;;;;5051044;28;20173;-64
2023/06/25 08:33:43;;;;;;;0.00;0.00;;;37.60;35.60;;;;;;5050979;28;20173;-63
2023/06/25 08:36:08;;;;;;;0.00;0.00;;;37.60;36.30;;;;;;5050839;28;20180;-63
2023/06/25 08:38:36;;;;;;;0.00;0.00;;;37.70;35.30;;;;;;5050660;28;20176;-63
2023/06/25 08:41:02;;;;;;;0.30;0.30;;;37.80;35.10;;;;;;5050940;28;20257;-63
2023/06/25 08:43:28;;;;;;;1.85;0.10;;;37.70;36.50;;;;;;5050914;28;20184;-63
2023/06/25 08:45:54;;;;;;;0.00;0.00;;;37.70;36.50;;;;;;5050740;28;20648;-63
2023/06/25 08:48:21;;;;;;;0.03;0.03;;;37.60;36.50;;;;;;5050906;28;20173;-64
2023/06/25 08:50:53;;;;;;;0.00;0.00;;;37.60;37.40;;;;;;5050751;28;20210;-64
2023/06/25 08:53:19;;;;;;;0.00;0.00;;;37.60;36.60;;;;;;5050770;28;20177;-64
2023/06/25 08:55:46;;;;;;;0.00;0.00;;;37.60;35.20;;;;;;5050779;28;20176;-63
2023/06/25 08:58:12;;;;;;;0.10;0.10;;;37.00;32.60;;;;;;5050739;28;20222;-63
2023/06/25 09:00:37;;;;;;;0.00;0.00;;;36.70;34.30;;;;;;5049241;28;20173;-64
2023/06/25 09:03:03;;;;;;;0.00;0.00;;;36.50;35.90;;;;;;5050903;28;20173;-65
2023/06/25 09:05:28;;;;;;;0.00;0.00;;;36.10;36.90;;;;;;5053521;28;20272;-63
2023/06/25 09:07:55;;;;;;;0.00;0.00;;;36.20;36.30;;;;;;5053019;28;20169;-64
2023/06/25 09:10:22;;;;;;;0.10;0.10;;;36.10;34.60;;;;;;5054152;28;20303;-63
2023/06/25 09:12:48;;;;;;;0.35;0.20;;;36.10;35.40;;;;;;5054104;28;20632;-64
2023/06/25 09:15:22;;;;;;;0.00;0.00;;;36.10;36.30;;;;;;5041336;28;20186;-64
2023/06/25 09:17:48;;;;;;;0.00;0.00;;;35.90;36.50;;;;;;5038537;28;20184;-64
2023/06/25 09:20:14;;;;;;;0.00;0.00;;;35.60;35.90;;;;;;5052620;28;20258;-63
2023/06/25 09:22:51;;;;;;;0.00;0.00;;;35.40;36.40;;;;;;5047127;28;20236;-64
2023/06/25 09:25:18;;;;;;;0.25;0.03;;;35.30;36.30;;;;;;5033947;28;20532;-63
2023/06/25 09:27:44;;;;;;;0.00;0.00;;;34.90;36.00;;;;;;5033618;28;20229;-63
2023/06/25 09:30:11;;;;;;;0.03;0.03;;;34.80;36.90;;;;;;5033807;28;20225;-63
2023/06/25 09:32:50;;;;;;;0.00;0.00;;;34.80;38.00;;;;;;5033679;28;20182;-64
2023/06/25 09:35:20;;;;;;;0.00;0.00;;;35.00;38.20;;;;;;5033949;28;20179;-63
2023/06/25 09:37:46;;;;;;;0.00;0.00;;;35.10;37.90;;;;;;5033646;28;20181;-63
2023/06/25 09:40:12;;;;;;;0.00;0.00;;;35.20;37.80;;;;;;5033683;28;20184;-63
2023/06/25 09:42:41;;;;;;;0.00;0.00;;;35.60;38.30;;;;;;5033544;28;20182;-63
2023/06/25 09:45:09;;;;;;;0.00;0.00;;;35.60;37.20;;;;;;5033632;28;20173;-63
2023/06/25 09:47:38;;;;;;;0.00;0.00;;;35.80;37.30;;;;;;5033309;28;20177;-63
2023/06/25 09:50:07;;;;;;;0.00;0.00;;;35.90;37.20;;;;;;5033485;28;20213;-63
2023/06/25 09:52:34;;;;;;;0.00;0.00;;;36.00;36.70;;;;;;5033326;28;20217;-63
2023/06/25 09:55:02;;;;;;;0.00;0.00;;;36.00;37.30;;;;;;5033570;28;20649;-63
2023/06/25 09:57:28;;;;;;;0.03;0.03;;;36.00;37.50;;;;;;5033340;28;20181;-63
2023/06/25 09:59:53;;;;;;;0.00;0.00;;;36.00;37.50;;;;;;5044263;28;20219;-63
2023/06/25 10:02:20;;;;;;;0.03;0.03;;;36.00;36.80;;;;;;5053188;28;20173;-63
2023/06/25 10:04:46;;;;;;;0.00;0.00;;;36.00;36.70;;;;;;5053167;28;20196;-63
2023/06/25 10:07:12;;;;;;;0.00;0.00;;;36.00;37.00;;;;;;5053063;28;20175;-63
2023/06/25 10:09:37;;;;;;;1.40;0.20;;;35.70;36.50;;;;;;5052826;28;20216;-63
2023/06/25 10:12:03;;;;;;;0.10;0.10;;;35.50;37.10;;;;;;5053103;28;20184;-63
2023/06/25 10:14:38;;;;;;;0.00;0.00;;;35.40;37.20;;;;;;5049528;28;20172;-63
2023/06/25 10:17:05;;;;;;;0.00;0.00;;;35.20;37.30;;;;;;5052038;28;20659;-62
2023/06/25 10:19:30;;;;;;;0.00;0.00;;;35.20;38.90;;;;;;5052274;28;20543;-63
2023/06/25 10:22:10;;;;;;;0.00;0.00;;;35.40;38.30;;;;;;5051018;28;20260;-63
2023/06/25 10:24:47;;;;;;;0.00;0.00;;;35.20;37.90;;;;;;5048061;28;20192;-63
2023/06/25 10:27:31;;;;;;;0.03;0.03;;;35.00;39.30;;;;;;5041678;28;20262;-63
2023/06/25 10:29:57;;;;;;;0.22;0.22;;;35.40;38.70;;;;;;5052254;28;20855;-62
2023/06/25 10:32:25;;;;;;;0.00;0.00;;;35.40;38.50;;;;;;5050733;28;20587;-62
2023/06/25 10:35:01;;;;;;;0.00;0.00;;;35.10;38.60;;;;;;5051875;28;20188;-62
2023/06/25 10:37:34;;;;;;;0.00;0.00;;;34.90;39.90;;;;;;5051997;28;20185;-62
2023/06/25 10:40:01;;;;;;;0.00;0.00;;;35.10;39.10;;;;;;5051661;28;20216;-62
2023/06/25 10:42:29;;;;;;;0.15;0.15;;;35.20;38.60;;;;;;5051847;28;20207;-63
2023/06/25 10:44:54;;;;;;;0.10;0.10;;;35.40;38.40;;;;;;5051585;28;20181;-62
2023/06/25 10:47:20;;;;;;;0.00;0.00;;;35.50;38.90;;;;;;5051652;28;20663;-62
2023/06/25 10:49:46;;;;;;;0.13;0.13;;;35.60;38.50;;;;;;5051207;28;20345;-62
2023/06/25 10:52:11;;;;;;;0.10;0.10;;;35.60;38.00;;;;;;5051753;28;20188;-63
2023/06/25 10:54:37;;;;;;;0.00;0.00;;;35.70;38.10;;;;;;5051853;28;20640;-62
2023/06/25 10:57:07;;;;;;;0.00;0.00;;;35.80;38.40;;;;;;5051523;28;20881;-62
2023/06/25 10:59:33;;;;;;;0.00;0.00;;;35.90;37.00;;;;;;5051207;28;20176;-62
2023/06/25 11:02:21;;;;;;;0.00;0.00;;;35.60;36.80;;;;;;5051633;28;20196;-62
2023/06/25 11:04:55;;;;;;;0.00;0.00;;;35.30;37.20;;;;;;5051209;28;20555;-62
2023/06/25 11:07:22;;;;;;;0.00;0.00;;;35.30;38.00;;;;;;5037088;28;20237;-62
2023/06/25 11:10:07;;;;;;;0.05;0.05;;;35.50;37.40;;;;;;5051286;28;20683;-62
2023/06/25 11:12:32;;;;;;;0.00;0.00;;;35.60;37.10;;;;;;5051555;28;20670;-62
2023/06/25 11:14:58;;;;;;;0.00;0.00;;;35.90;37.20;;;;;;5051045;28;20185;-60
2023/06/25 11:17:24;;;;;;;0.00;0.00;;;36.10;36.80;;;;;;5051419;28;20650;-59
2023/06/25 11:19:53;;;;;;;0.00;0.00;;;36.20;36.80;;;;;;5051034;28;20212;-61
2023/06/25 11:22:20;;;;;;;0.00;0.00;;;36.20;37.30;;;;;;5046456;28;20182;-60
2023/06/25 11:24:46;;;;;;;0.00;0.00;;;36.40;36.30;;;;;;5047690;28;20180;-60
2023/06/25 11:27:11;;;;;;;0.00;0.00;;;36.30;35.40;;;;;;5050076;28;20222;-60
2023/06/25 11:29:39;;;;;;;0.05;0.05;;;36.10;34.80;;;;;;5050594;28;20208;-60
2023/06/25 11:32:08;;;;;;;0.00;0.00;;;35.70;34.00;;;;;;5050515;28;20177;-61
2023/06/25 11:34:34;;;;;;;0.00;0.00;;;35.60;35.80;;;;;;5050808;28;20181;-61
2023/06/25 11:37:14;;;;;;;0.03;0.03;;;35.40;36.10;;;;;;5050891;28;20207;-61
2023/06/25 11:39:47;;;;;;;0.00;0.00;;;35.40;36.40;;;;;;5042098;28;20186;-61
2023/06/25 11:42:18;;;;;;;0.00;0.00;;;35.30;36.30;;;;;;5050987;28;20184;-61
2023/06/25 11:44:45;;;;;;;0.00;0.00;;;35.40;35.90;;;;;;5050822;28;20652;-61
2023/06/25 11:47:13;;;;;;;0.00;0.00;;;35.30;37.30;;;;;;5051041;28;20234;-61
2023/06/25 11:49:39;;;;;;;0.25;0.03;;;35.60;35.70;;;;;;5050717;28;20295;-61
2023/06/25 11:52:05;;;;;;;0.32;0.10;;;35.70;35.90;;;;;;5050123;28;20601;-61
2023/06/25 11:54:30;;;;;;;0.00;0.00;;;35.60;36.50;;;;;;5050552;28;20268;-61
2023/06/25 11:56:56;;;;;;;0.00;0.00;;;35.40;35.10;;;;;;5050679;28;20223;-61
2023/06/25 11:59:22;;;;;;;0.00;0.00;;;35.10;36.30;;;;;;5050677;28;20200;-61
2023/06/25 12:01:48;;;;;;;0.00;0.00;;;35.00;36.10;;;;;;5050607;28;20654;-60
2023/06/25 12:04:13;;;;;;;0.00;0.00;;;34.90;36.00;;;;;;5051045;28;20188;-61
2023/06/25 12:06:39;;;;;;;0.00;0.00;;;34.90;36.00;;;;;;5050422;28;20192;-61
2023/06/25 12:09:04;;;;;;;0.08;0.08;;;34.90;35.60;;;;;;5050264;28;20598;-61
2023/06/25 12:11:30;;;;;;;0.65;0.52;;;35.00;36.40;;;;;;5049317;28;20192;-61
2023/06/25 12:13:56;;;;;;;0.00;0.00;;;34.90;35.60;;;;;;5050063;28;20188;-61
2023/06/25 12:16:22;;;;;;;0.00;0.00;;;34.80;36.40;;;;;;5050593;28;20647;-61
2023/06/25 12:18:47;;;;;;;0.00;0.00;;;35.10;36.20;;;;;;5050717;28;20185;-61
2023/06/25 12:21:13;;;;;;;0.00;0.00;;;35.20;36.80;;;;;;5050374;28;20203;-61
2023/06/25 12:23:38;;;;;;;0.05;0.05;;;35.30;36.30;;;;;;5060478;28;20215;-61
2023/06/25 12:26:04;;;;;;;0.00;0.00;;;35.30;34.50;;;;;;5050596;28;20176;-61
2023/06/25 12:28:29;;;;;;;0.00;0.00;;;35.50;35.60;;;;;;5050576;28;20192;-61
2023/06/25 12:30:55;;;;;;;0.00;0.00;;;35.60;35.60;;;;;;5050603;28;20606;-61
2023/06/25 12:33:21;;;;;;;0.03;0.03;;;35.60;34.60;;;;;;5050543;28;20191;-61
2023/06/25 12:35:47;;;;;;;0.00;0.00;;;35.40;34.60;;;;;;5050767;28;20188;-62
2023/06/25 12:38:12;;;;;;;0.00;0.00;;;35.40;35.80;;;;;;5051320;28;20176;-62
2023/06/25 12:40:38;;;;;;;0.00;0.00;;;35.50;35.30;;;;;;5054382;28;20262;-62
2023/06/25 12:43:03;;;;;;;0.00;0.00;;;35.40;35.20;;;;;;5054102;28;20185;-61
2023/06/25 12:45:29;;;;;;;0.00;0.00;;;35.40;35.70;;;;;;5054051;28;20176;-61